Terminal Aerodrome Forecast
Issued by NWS North Platte, NE

Home | Current Version | Previous Version | Graphics & Text | Print | Product List | Glossary On
Versions: 1 2 3 4 5 6 7 8 9 10 11 12 13 14 15 16 17 18 19 20 21 22 23 24 25 26
000
FTUS43 KLBF 252000 AAA
TAFVTN
TAF AMD
KVTN 252000Z 2520/2618 01017G26KT 3SM -SN BR OVC012
     FM252100 36017G25KT P6SM BKN015
     FM260700 34010KT P6SM BKN025
     FM261300 34010KT P6SM SCT025
     FM261600 35013KT P6SM SCT050=

USA.gov is the U.S. government's official web portal to all federal, state and local government web resources and services.